Seitenverwaltung

Live am Platz

Die Bilder unserer Webcams werden alle 5 Minuten aktualisiert.

Sonnenaufgang:

03:31 UTC / 05:31 Lokal

Sonnenuntergang:

19:09 UTC / 21:09 Lokal

METAR (26.05.2020 17:50 UTC):

EDNY 261850Z AUTO 04006KT 9999 // NCD 16/05 Q1032
VFR

TAF (26.05.2020 16:00 UTC):

TAF EDNY 261700Z 2618/2718 04006KT CAVOK BECMG 2708/2710 04011KT

Alle Angaben unverbindlich und ohne Gewähr. Zeiten genähert.

Für den Verkehrslandeplatz Konstanz werden keine offiziellen Wetterinformationen ausgegeben. Daher werden zur Orientierung Daten des nahegelegenen Flughafens Friedrichshafen dargestellt.

Flugwetterdaten zur Verfügung gestellt von wippich.aero.